sensor_id;sensor_type;location;lat;lon;timestamp;P1;durP1;ratioP1;P2;durP2;ratioP2
71566;SDS011;59403;47.456;19.120;2023-05-14T00:02:20;9.40;;;6.90;;
71566;SDS011;59403;47.456;19.120;2023-05-14T00:04:48;10.75;;;6.90;;
71566;SDS011;59403;47.456;19.120;2023-05-14T00:07:29;10.02;;;7.28;;
71566;SDS011;59403;47.456;19.120;2023-05-14T00:09:56;9.55;;;6.32;;
71566;SDS011;59403;47.456;19.120;2023-05-14T00:12:23;9.45;;;6.90;;
71566;SDS011;59403;47.456;19.120;2023-05-14T00:14:50;9.97;;;6.90;;
71566;SDS011;59403;47.456;19.120;2023-05-14T00:17:19;8.77;;;6.70;;
71566;SDS011;59403;47.456;19.120;2023-05-14T00:19:46;10.65;;;7.40;;
71566;SDS011;59403;47.456;19.120;2023-05-14T00:22:13;9.80;;;7.57;;
71566;SDS011;59403;47.456;19.120;2023-05-14T00:24:40;8.70;;;7.68;;
71566;SDS011;59403;47.456;19.120;2023-05-14T00:27:08;9.03;;;7.10;;
71566;SDS011;59403;47.456;19.120;2023-05-14T00:29:35;10.02;;;7.47;;
71566;SDS011;59403;47.456;19.120;2023-05-14T00:32:02;9.80;;;7.10;;
71566;SDS011;59403;47.456;19.120;2023-05-14T00:34:31;9.43;;;6.30;;
71566;SDS011;59403;47.456;19.120;2023-05-14T00:36:58;8.73;;;7.30;;
71566;SDS011;59403;47.456;19.120;2023-05-14T00:39:25;9.43;;;6.63;;
71566;SDS011;59403;47.456;19.120;2023-05-14T00:41:52;7.95;;;6.12;;
71566;SDS011;59403;47.456;19.120;2023-05-14T00:44:19;9.57;;;7.20;;
71566;SDS011;59403;47.456;19.120;2023-05-14T00:46:46;9.30;;;6.60;;
71566;SDS011;59403;47.456;19.120;2023-05-14T00:49:13;8.88;;;6.85;;
71566;SDS011;59403;47.456;19.120;2023-05-14T00:51:42;8.90;;;6.40;;
71566;SDS011;59403;47.456;19.120;2023-05-14T00:54:12;10.65;;;6.80;;
71566;SDS011;59403;47.456;19.120;2023-05-14T00:56:41;9.05;;;6.62;;
71566;SDS011;59403;47.456;19.120;2023-05-14T00:59:10;7.95;;;6.47;;
71566;SDS011;59403;47.456;19.120;2023-05-14T01:06:44;9.57;;;6.53;;
71566;SDS011;59403;47.456;19.120;2023-05-14T01:09:17;8.77;;;6.60;;
71566;SDS011;59403;47.456;19.120;2023-05-14T01:11:51;8.00;;;6.12;;
71566;SDS011;59403;47.456;19.120;2023-05-14T01:14:27;8.85;;;6.53;;
71566;SDS011;59403;47.456;19.120;2023-05-14T01:16:59;10.17;;;6.33;;
71566;SDS011;59403;47.456;19.120;2023-05-14T01:19:32;8.68;;;6.20;;
71566;SDS011;59403;47.456;19.120;2023-05-14T01:22:06;7.90;;;6.30;;
71566;SDS011;59403;47.456;19.120;2023-05-14T01:24:33;8.10;;;6.53;;
71566;SDS011;59403;47.456;19.120;2023-05-14T01:27:02;9.30;;;6.95;;
71566;SDS011;59403;47.456;19.120;2023-05-14T01:29:36;9.67;;;6.00;;
71566;SDS011;59403;47.456;19.120;2023-05-14T01:32:07;11.40;;;6.60;;
71566;SDS011;59403;47.456;19.120;2023-05-14T01:34:35;10.07;;;6.78;;
71566;SDS011;59403;47.456;19.120;2023-05-14T01:37:05;10.13;;;6.78;;
71566;SDS011;59403;47.456;19.120;2023-05-14T01:39:36;8.23;;;6.43;;
71566;SDS011;59403;47.456;19.120;2023-05-14T01:42:05;8.67;;;6.53;;
71566;SDS011;59403;47.456;19.120;2023-05-14T01:44:33;10.32;;;6.40;;
71566;SDS011;59403;47.456;19.120;2023-05-14T01:47:00;8.93;;;6.78;;
71566;SDS011;59403;47.456;19.120;2023-05-14T01:49:27;8.32;;;6.53;;
71566;SDS011;59403;47.456;19.120;2023-05-14T01:51:54;9.50;;;7.15;;
71566;SDS011;59403;47.456;19.120;2023-05-14T01:54:23;9.27;;;7.17;;
71566;SDS011;59403;47.456;19.120;2023-05-14T01:56:50;11.12;;;6.68;;
71566;SDS011;59403;47.456;19.120;2023-05-14T01:59:16;9.10;;;7.15;;
71566;SDS011;59403;47.456;19.120;2023-05-14T02:01:43;9.25;;;6.72;;
71566;SDS011;59403;47.456;19.120;2023-05-14T02:04:10;8.55;;;6.75;;
71566;SDS011;59403;47.456;19.120;2023-05-14T02:06:37;8.43;;;6.67;;
71566;SDS011;59403;47.456;19.120;2023-05-14T02:09:04;8.15;;;6.30;;
71566;SDS011;59403;47.456;19.120;2023-05-14T02:11:32;8.13;;;6.65;;
71566;SDS011;59403;47.456;19.120;2023-05-14T02:13:59;8.73;;;6.55;;
71566;SDS011;59403;47.456;19.120;2023-05-14T02:16:26;7.95;;;6.28;;
71566;SDS011;59403;47.456;19.120;2023-05-14T02:18:53;7.27;;;5.60;;
71566;SDS011;59403;47.456;19.120;2023-05-14T02:21:19;8.63;;;5.70;;
71566;SDS011;59403;47.456;19.120;2023-05-14T02:23:46;8.90;;;6.75;;
71566;SDS011;59403;47.456;19.120;2023-05-14T02:26:14;7.40;;;5.97;;
71566;SDS011;59403;47.456;19.120;2023-05-14T02:28:42;8.63;;;5.97;;
71566;SDS011;59403;47.456;19.120;2023-05-14T02:31:09;7.87;;;5.67;;
71566;SDS011;59403;47.456;19.120;2023-05-14T02:33:36;7.68;;;5.47;;
71566;SDS011;59403;47.456;19.120;2023-05-14T02:36:03;9.98;;;6.15;;
71566;SDS011;59403;47.456;19.120;2023-05-14T02:38:30;7.93;;;6.32;;
71566;SDS011;59403;47.456;19.120;2023-05-14T02:40:57;7.12;;;6.03;;
71566;SDS011;59403;47.456;19.120;2023-05-14T02:43:24;7.77;;;5.73;;
71566;SDS011;59403;47.456;19.120;2023-05-14T02:45:52;7.30;;;5.45;;
71566;SDS011;59403;47.456;19.120;2023-05-14T02:48:19;8.27;;;5.95;;
71566;SDS011;59403;47.456;19.120;2023-05-14T02:50:45;8.88;;;5.50;;
71566;SDS011;59403;47.456;19.120;2023-05-14T02:53:13;7.57;;;5.43;;
71566;SDS011;59403;47.456;19.120;2023-05-14T02:55:40;8.87;;;5.50;;
71566;SDS011;59403;47.456;19.120;2023-05-14T02:58:07;6.43;;;5.60;;
71566;SDS011;59403;47.456;19.120;2023-05-14T03:00:35;8.00;;;5.97;;
71566;SDS011;59403;47.456;19.120;2023-05-14T03:03:03;8.35;;;5.80;;
71566;SDS011;59403;47.456;19.120;2023-05-14T03:05:30;9.23;;;6.25;;
71566;SDS011;59403;47.456;19.120;2023-05-14T03:07:57;9.10;;;5.50;;
71566;SDS011;59403;47.456;19.120;2023-05-14T03:10:24;8.35;;;5.40;;
71566;SDS011;59403;47.456;19.120;2023-05-14T03:12:51;7.60;;;5.12;;
71566;SDS011;59403;47.456;19.120;2023-05-14T03:15:17;6.97;;;5.18;;
71566;SDS011;59403;47.456;19.120;2023-05-14T03:17:45;6.97;;;5.07;;
71566;SDS011;59403;47.456;19.120;2023-05-14T03:20:13;6.27;;;5.10;;
71566;SDS011;59403;47.456;19.120;2023-05-14T03:22:41;12.07;;;5.65;;
71566;SDS011;59403;47.456;19.120;2023-05-14T03:25:08;6.12;;;5.07;;
71566;SDS011;59403;47.456;19.120;2023-05-14T03:27:35;6.47;;;5.07;;
71566;SDS011;59403;47.456;19.120;2023-05-14T03:30:02;7.82;;;5.75;;
71566;SDS011;59403;47.456;19.120;2023-05-14T03:32:29;6.30;;;5.60;;
71566;SDS011;59403;47.456;19.120;2023-05-14T03:34:56;7.05;;;5.90;;
71566;SDS011;59403;47.456;19.120;2023-05-14T03:37:24;6.70;;;5.20;;
71566;SDS011;59403;47.456;19.120;2023-05-14T03:39:51;7.75;;;5.45;;
71566;SDS011;59403;47.456;19.120;2023-05-14T03:42:18;6.97;;;4.80;;
71566;SDS011;59403;47.456;19.120;2023-05-14T03:44:45;7.70;;;5.13;;
71566;SDS011;59403;47.456;19.120;2023-05-14T03:47:12;6.25;;;4.80;;
71566;SDS011;59403;47.456;19.120;2023-05-14T03:49:39;7.00;;;5.28;;
71566;SDS011;59403;47.456;19.120;2023-05-14T03:52:05;6.80;;;4.65;;
71566;SDS011;59403;47.456;19.120;2023-05-14T03:54:34;7.80;;;5.80;;
71566;SDS011;59403;47.456;19.120;2023-05-14T03:57:00;9.10;;;5.00;;
71566;SDS011;59403;47.456;19.120;2023-05-14T03:59:27;7.62;;;5.05;;
71566;SDS011;59403;47.456;19.120;2023-05-14T04:01:54;8.68;;;5.53;;
71566;SDS011;59403;47.456;19.120;2023-05-14T04:04:21;6.45;;;4.50;;
71566;SDS011;59403;47.456;19.120;2023-05-14T04:06:48;6.72;;;5.50;;
71566;SDS011;59403;47.456;19.120;2023-05-14T04:09:15;6.10;;;4.67;;
71566;SDS011;59403;47.456;19.120;2023-05-14T04:11:43;6.78;;;5.12;;
71566;SDS011;59403;47.456;19.120;2023-05-14T04:14:10;7.65;;;4.90;;
71566;SDS011;59403;47.456;19.120;2023-05-14T04:16:37;7.28;;;4.60;;
71566;SDS011;59403;47.456;19.120;2023-05-14T04:19:04;8.00;;;5.28;;
71566;SDS011;59403;47.456;19.120;2023-05-14T04:21:31;7.33;;;4.73;;
71566;SDS011;59403;47.456;19.120;2023-05-14T04:23:58;5.62;;;4.62;;
71566;SDS011;59403;47.456;19.120;2023-05-14T04:26:25;6.62;;;5.40;;
71566;SDS011;59403;47.456;19.120;2023-05-14T04:28:53;7.55;;;4.75;;
71566;SDS011;59403;47.456;19.120;2023-05-14T04:31:20;7.47;;;4.97;;
71566;SDS011;59403;47.456;19.120;2023-05-14T04:33:47;7.63;;;5.10;;
71566;SDS011;59403;47.456;19.120;2023-05-14T04:36:14;6.53;;;4.85;;
71566;SDS011;59403;47.456;19.120;2023-05-14T04:38:41;7.50;;;5.10;;
71566;SDS011;59403;47.456;19.120;2023-05-14T04:41:08;5.47;;;4.70;;
71566;SDS011;59403;47.456;19.120;2023-05-14T04:43:35;7.00;;;4.85;;
71566;SDS011;59403;47.456;19.120;2023-05-14T04:46:03;6.90;;;4.37;;
71566;SDS011;59403;47.456;19.120;2023-05-14T04:48:30;6.57;;;4.30;;
71566;SDS011;59403;47.456;19.120;2023-05-14T04:50:57;5.95;;;4.85;;
71566;SDS011;59403;47.456;19.120;2023-05-14T04:53:24;6.53;;;4.30;;
71566;SDS011;59403;47.456;19.120;2023-05-14T04:55:51;6.22;;;4.53;;
71566;SDS011;59403;47.456;19.120;2023-05-14T04:58:18;6.67;;;4.43;;
71566;SDS011;59403;47.456;19.120;2023-05-14T05:00:45;8.05;;;4.60;;
71566;SDS011;59403;47.456;19.120;2023-05-14T05:03:13;6.43;;;5.15;;
71566;SDS011;59403;47.456;19.120;2023-05-14T05:05:40;6.45;;;5.05;;
71566;SDS011;59403;47.456;19.120;2023-05-14T05:08:07;7.53;;;4.95;;
71566;SDS011;59403;47.456;19.120;2023-05-14T05:10:35;7.67;;;4.90;;
71566;SDS011;59403;47.456;19.120;2023-05-14T05:13:02;6.75;;;4.53;;
71566;SDS011;59403;47.456;19.120;2023-05-14T05:15:28;8.80;;;5.12;;
71566;SDS011;59403;47.456;19.120;2023-05-14T05:17:55;9.75;;;5.18;;
71566;SDS011;59403;47.456;19.120;2023-05-14T05:20:24;7.18;;;5.40;;
71566;SDS011;59403;47.456;19.120;2023-05-14T05:22:52;6.53;;;4.93;;
71566;SDS011;59403;47.456;19.120;2023-05-14T05:25:19;5.68;;;4.70;;
71566;SDS011;59403;47.456;19.120;2023-05-14T05:27:46;6.90;;;5.22;;
71566;SDS011;59403;47.456;19.120;2023-05-14T05:30:12;7.57;;;5.28;;
71566;SDS011;59403;47.456;19.120;2023-05-14T05:32:39;9.65;;;5.28;;
71566;SDS011;59403;47.456;19.120;2023-05-14T05:35:06;7.37;;;4.63;;
71566;SDS011;59403;47.456;19.120;2023-05-14T05:37:35;6.43;;;4.95;;
71566;SDS011;59403;47.456;19.120;2023-05-14T05:40:03;6.50;;;5.10;;
71566;SDS011;59403;47.456;19.120;2023-05-14T05:42:31;8.02;;;5.40;;
71566;SDS011;59403;47.456;19.120;2023-05-14T05:44:58;7.97;;;5.40;;
71566;SDS011;59403;47.456;19.120;2023-05-14T05:47:24;7.17;;;5.27;;
71566;SDS011;59403;47.456;19.120;2023-05-14T05:49:51;12.13;;;5.28;;
71566;SDS011;59403;47.456;19.120;2023-05-14T05:52:18;8.88;;;5.62;;
71566;SDS011;59403;47.456;19.120;2023-05-14T05:54:47;7.65;;;5.40;;
71566;SDS011;59403;47.456;19.120;2023-05-14T05:57:13;6.93;;;5.22;;
71566;SDS011;59403;47.456;19.120;2023-05-14T05:59:40;6.33;;;5.00;;
71566;SDS011;59403;47.456;19.120;2023-05-14T06:02:07;8.85;;;5.32;;
71566;SDS011;59403;47.456;19.120;2023-05-14T06:04:34;7.07;;;5.50;;
71566;SDS011;59403;47.456;19.120;2023-05-14T06:07:01;7.75;;;5.37;;
71566;SDS011;59403;47.456;19.120;2023-05-14T06:09:28;6.97;;;5.47;;
71566;SDS011;59403;47.456;19.120;2023-05-14T06:11:56;6.93;;;5.17;;
71566;SDS011;59403;47.456;19.120;2023-05-14T06:14:23;8.30;;;5.20;;
71566;SDS011;59403;47.456;19.120;2023-05-14T06:16:49;7.85;;;5.60;;
71566;SDS011;59403;47.456;19.120;2023-05-14T06:19:16;9.00;;;5.32;;
71566;SDS011;59403;47.456;19.120;2023-05-14T06:21:43;8.82;;;5.82;;
71566;SDS011;59403;47.456;19.120;2023-05-14T06:24:10;8.50;;;5.67;;
71566;SDS011;59403;47.456;19.120;2023-05-14T06:26:38;8.02;;;5.65;;
71566;SDS011;59403;47.456;19.120;2023-05-14T06:29:06;7.43;;;5.40;;
71566;SDS011;59403;47.456;19.120;2023-05-14T06:31:33;7.87;;;5.50;;
71566;SDS011;59403;47.456;19.120;2023-05-14T06:34:00;7.03;;;5.28;;
71566;SDS011;59403;47.456;19.120;2023-05-14T06:36:26;7.73;;;5.83;;
71566;SDS011;59403;47.456;19.120;2023-05-14T06:38:53;6.30;;;5.10;;
71566;SDS011;59403;47.456;19.120;2023-05-14T06:41:20;8.63;;;5.95;;
71566;SDS011;59403;47.456;19.120;2023-05-14T06:43:47;7.75;;;5.10;;
71566;SDS011;59403;47.456;19.120;2023-05-14T06:46:15;8.40;;;6.03;;
71566;SDS011;59403;47.456;19.120;2023-05-14T06:48:42;8.57;;;5.67;;
71566;SDS011;59403;47.456;19.120;2023-05-14T06:51:09;6.47;;;5.10;;
71566;SDS011;59403;47.456;19.120;2023-05-14T06:53:37;9.00;;;6.40;;
71566;SDS011;59403;47.456;19.120;2023-05-14T06:56:04;8.35;;;5.93;;
71566;SDS011;59403;47.456;19.120;2023-05-14T06:58:31;8.55;;;5.60;;
71566;SDS011;59403;47.456;19.120;2023-05-14T07:00:58;8.27;;;5.30;;
71566;SDS011;59403;47.456;19.120;2023-05-14T07:03:27;8.50;;;5.82;;
71566;SDS011;59403;47.456;19.120;2023-05-14T07:05:54;8.48;;;6.03;;
71566;SDS011;59403;47.456;19.120;2023-05-14T07:08:21;9.32;;;5.70;;
71566;SDS011;59403;47.456;19.120;2023-05-14T07:10:48;7.82;;;5.53;;
71566;SDS011;59403;47.456;19.120;2023-05-14T07:13:14;11.00;;;5.47;;
71566;SDS011;59403;47.456;19.120;2023-05-14T07:15:41;7.40;;;5.90;;
71566;SDS011;59403;47.456;19.120;2023-05-14T07:18:08;8.57;;;6.10;;
71566;SDS011;59403;47.456;19.120;2023-05-14T07:20:36;7.78;;;5.93;;
71566;SDS011;59403;47.456;19.120;2023-05-14T07:23:03;7.87;;;6.03;;
71566;SDS011;59403;47.456;19.120;2023-05-14T07:25:33;7.17;;;5.50;;
71566;SDS011;59403;47.456;19.120;2023-05-14T07:28:00;7.60;;;5.80;;
71566;SDS011;59403;47.456;19.120;2023-05-14T07:30:27;6.45;;;5.45;;
71566;SDS011;59403;47.456;19.120;2023-05-14T07:32:54;8.93;;;5.97;;
71566;SDS011;59403;47.456;19.120;2023-05-14T07:35:21;7.85;;;5.95;;
71566;SDS011;59403;47.456;19.120;2023-05-14T07:37:49;8.40;;;6.47;;
71566;SDS011;59403;47.456;19.120;2023-05-14T07:40:16;7.70;;;5.50;;
71566;SDS011;59403;47.456;19.120;2023-05-14T07:42:43;10.18;;;5.78;;
71566;SDS011;59403;47.456;19.120;2023-05-14T07:45:10;9.55;;;5.70;;
71566;SDS011;59403;47.456;19.120;2023-05-14T07:47:37;7.22;;;5.90;;
71566;SDS011;59403;47.456;19.120;2023-05-14T07:50:05;7.80;;;5.60;;
71566;SDS011;59403;47.456;19.120;2023-05-14T07:52:33;7.90;;;5.20;;
71566;SDS011;59403;47.456;19.120;2023-05-14T07:55:01;7.62;;;5.82;;
71566;SDS011;59403;47.456;19.120;2023-05-14T07:57:28;7.60;;;6.05;;
71566;SDS011;59403;47.456;19.120;2023-05-14T07:59:55;10.48;;;6.12;;
71566;SDS011;59403;47.456;19.120;2023-05-14T08:02:22;7.80;;;6.03;;
71566;SDS011;59403;47.456;19.120;2023-05-14T08:04:49;8.52;;;6.03;;
71566;SDS011;59403;47.456;19.120;2023-05-14T08:07:16;8.23;;;6.45;;
71566;SDS011;59403;47.456;19.120;2023-05-14T08:09:43;7.15;;;5.65;;
71566;SDS011;59403;47.456;19.120;2023-05-14T08:12:11;10.20;;;7.00;;
71566;SDS011;59403;47.456;19.120;2023-05-14T08:14:38;9.00;;;6.00;;
71566;SDS011;59403;47.456;19.120;2023-05-14T08:17:04;8.32;;;6.55;;
71566;SDS011;59403;47.456;19.120;2023-05-14T08:19:31;11.57;;;7.15;;
71566;SDS011;59403;47.456;19.120;2023-05-14T08:21:59;8.98;;;6.50;;
71566;SDS011;59403;47.456;19.120;2023-05-14T08:24:25;8.63;;;6.60;;
71566;SDS011;59403;47.456;19.120;2023-05-14T08:26:52;8.30;;;6.27;;
71566;SDS011;59403;47.456;19.120;2023-05-14T08:29:21;7.82;;;6.90;;
71566;SDS011;59403;47.456;19.120;2023-05-14T08:31:49;9.00;;;7.18;;
71566;SDS011;59403;47.456;19.120;2023-05-14T08:34:16;10.48;;;6.40;;
71566;SDS011;59403;47.456;19.120;2023-05-14T08:36:43;9.38;;;7.32;;
71566;SDS011;59403;47.456;19.120;2023-05-14T08:39:10;10.23;;;6.70;;
71566;SDS011;59403;47.456;19.120;2023-05-14T08:41:37;9.90;;;7.07;;
71566;SDS011;59403;47.456;19.120;2023-05-14T08:44:06;9.98;;;7.37;;
71566;SDS011;59403;47.456;19.120;2023-05-14T08:46:36;8.57;;;6.50;;
71566;SDS011;59403;47.456;19.120;2023-05-14T08:49:05;11.70;;;7.37;;
71566;SDS011;59403;47.456;19.120;2023-05-14T08:51:40;8.20;;;7.13;;
71566;SDS011;59403;47.456;19.120;2023-05-14T08:54:08;9.25;;;7.47;;
71566;SDS011;59403;47.456;19.120;2023-05-14T08:56:39;9.02;;;7.15;;
71566;SDS011;59403;47.456;19.120;2023-05-14T08:59:07;9.95;;;7.07;;
71566;SDS011;59403;47.456;19.120;2023-05-14T09:01:35;8.85;;;7.00;;
71566;SDS011;59403;47.456;19.120;2023-05-14T09:04:03;10.80;;;7.23;;
71566;SDS011;59403;47.456;19.120;2023-05-14T09:06:33;11.10;;;6.68;;
71566;SDS011;59403;47.456;19.120;2023-05-14T09:09:01;8.48;;;6.62;;
71566;SDS011;59403;47.456;19.120;2023-05-14T09:11:28;7.35;;;6.43;;
71566;SDS011;59403;47.456;19.120;2023-05-14T09:13:55;8.45;;;7.00;;
71566;SDS011;59403;47.456;19.120;2023-05-14T09:16:22;8.37;;;6.63;;
71566;SDS011;59403;47.456;19.120;2023-05-14T09:18:53;9.50;;;6.90;;
71566;SDS011;59403;47.456;19.120;2023-05-14T09:21:20;8.65;;;6.68;;
71566;SDS011;59403;47.456;19.120;2023-05-14T09:23:46;8.20;;;7.00;;
71566;SDS011;59403;47.456;19.120;2023-05-14T09:26:21;10.82;;;7.72;;
71566;SDS011;59403;47.456;19.120;2023-05-14T09:28:52;9.97;;;7.13;;
71566;SDS011;59403;47.456;19.120;2023-05-14T09:31:20;11.00;;;6.82;;
71566;SDS011;59403;47.456;19.120;2023-05-14T09:33:48;9.60;;;6.80;;
71566;SDS011;59403;47.456;19.120;2023-05-14T09:36:17;9.57;;;7.07;;
71566;SDS011;59403;47.456;19.120;2023-05-14T09:38:44;10.65;;;7.20;;
71566;SDS011;59403;47.456;19.120;2023-05-14T09:41:11;12.10;;;7.33;;
71566;SDS011;59403;47.456;19.120;2023-05-14T09:43:38;11.77;;;7.93;;
71566;SDS011;59403;47.456;19.120;2023-05-14T09:46:05;12.05;;;7.90;;
71566;SDS011;59403;47.456;19.120;2023-05-14T09:48:32;9.77;;;7.40;;
71566;SDS011;59403;47.456;19.120;2023-05-14T09:50:59;9.88;;;7.75;;
71566;SDS011;59403;47.456;19.120;2023-05-14T09:53:27;10.33;;;7.77;;
71566;SDS011;59403;47.456;19.120;2023-05-14T09:55:55;10.10;;;7.70;;
71566;SDS011;59403;47.456;19.120;2023-05-14T09:58:22;11.93;;;8.15;;
71566;SDS011;59403;47.456;19.120;2023-05-14T10:00:49;11.98;;;8.45;;
71566;SDS011;59403;47.456;19.120;2023-05-14T10:03:17;10.60;;;7.72;;
71566;SDS011;59403;47.456;19.120;2023-05-14T10:05:45;11.60;;;7.00;;
71566;SDS011;59403;47.456;19.120;2023-05-14T10:08:17;10.85;;;8.48;;
71566;SDS011;59403;47.456;19.120;2023-05-14T10:10:48;12.82;;;9.20;;
71566;SDS011;59403;47.456;19.120;2023-05-14T10:13:19;11.23;;;8.25;;
71566;SDS011;59403;47.456;19.120;2023-05-14T10:15:48;11.02;;;8.68;;
71566;SDS011;59403;47.456;19.120;2023-05-14T10:18:22;11.17;;;8.67;;
71566;SDS011;59403;47.456;19.120;2023-05-14T10:20:52;11.90;;;8.73;;
71566;SDS011;59403;47.456;19.120;2023-05-14T10:23:27;10.73;;;8.82;;
71566;SDS011;59403;47.456;19.120;2023-05-14T10:25:56;11.35;;;8.23;;
71566;SDS011;59403;47.456;19.120;2023-05-14T10:28:24;10.20;;;8.15;;
71566;SDS011;59403;47.456;19.120;2023-05-14T10:30:51;9.63;;;8.13;;
71566;SDS011;59403;47.456;19.120;2023-05-14T10:33:19;9.65;;;7.75;;
71566;SDS011;59403;47.456;19.120;2023-05-14T10:35:49;9.93;;;7.68;;
71566;SDS011;59403;47.456;19.120;2023-05-14T10:38:20;10.52;;;7.70;;
71566;SDS011;59403;47.456;19.120;2023-05-14T10:40:51;9.35;;;7.32;;
71566;SDS011;59403;47.456;19.120;2023-05-14T10:43:22;8.97;;;6.93;;
71566;SDS011;59403;47.456;19.120;2023-05-14T10:45:52;10.57;;;7.68;;
71566;SDS011;59403;47.456;19.120;2023-05-14T10:48:22;9.05;;;7.62;;
71566;SDS011;59403;47.456;19.120;2023-05-14T10:50:49;10.20;;;7.60;;
71566;SDS011;59403;47.456;19.120;2023-05-14T10:53:17;10.40;;;7.47;;
71566;SDS011;59403;47.456;19.120;2023-05-14T10:55:44;9.93;;;7.53;;
71566;SDS011;59403;47.456;19.120;2023-05-14T10:58:11;9.70;;;7.15;;
71566;SDS011;59403;47.456;19.120;2023-05-14T11:00:40;8.68;;;7.22;;
71566;SDS011;59403;47.456;19.120;2023-05-14T11:03:07;8.90;;;7.95;;
71566;SDS011;59403;47.456;19.120;2023-05-14T11:05:33;10.38;;;7.82;;
71566;SDS011;59403;47.456;19.120;2023-05-14T11:08:03;9.70;;;7.47;;
71566;SDS011;59403;47.456;19.120;2023-05-14T11:10:33;9.25;;;7.35;;
71566;SDS011;59403;47.456;19.120;2023-05-14T11:13:00;10.88;;;7.37;;
71566;SDS011;59403;47.456;19.120;2023-05-14T11:15:27;10.13;;;7.65;;
71566;SDS011;59403;47.456;19.120;2023-05-14T11:17:56;10.55;;;8.27;;
71566;SDS011;59403;47.456;19.120;2023-05-14T11:20:22;8.70;;;7.17;;
71566;SDS011;59403;47.456;19.120;2023-05-14T11:22:49;9.38;;;7.05;;
71566;SDS011;59403;47.456;19.120;2023-05-14T11:25:16;10.73;;;7.60;;
71566;SDS011;59403;47.456;19.120;2023-05-14T11:27:44;9.57;;;7.07;;
71566;SDS011;59403;47.456;19.120;2023-05-14T11:30:13;9.68;;;7.12;;
71566;SDS011;59403;47.456;19.120;2023-05-14T11:32:41;12.93;;;7.40;;
71566;SDS011;59403;47.456;19.120;2023-05-14T11:35:11;8.35;;;7.15;;
71566;SDS011;59403;47.456;19.120;2023-05-14T11:37:38;10.20;;;7.55;;
71566;SDS011;59403;47.456;19.120;2023-05-14T11:40:06;13.95;;;7.82;;
71566;SDS011;59403;47.456;19.120;2023-05-14T11:42:35;8.35;;;7.35;;
71566;SDS011;59403;47.456;19.120;2023-05-14T11:45:02;10.63;;;8.07;;
71566;SDS011;59403;47.456;19.120;2023-05-14T11:47:30;10.20;;;7.10;;
71566;SDS011;59403;47.456;19.120;2023-05-14T11:49:57;11.27;;;7.93;;
71566;SDS011;59403;47.456;19.120;2023-05-14T11:52:26;10.35;;;7.10;;
71566;SDS011;59403;47.456;19.120;2023-05-14T11:54:52;11.10;;;7.60;;
71566;SDS011;59403;47.456;19.120;2023-05-14T11:57:20;8.57;;;6.87;;
71566;SDS011;59403;47.456;19.120;2023-05-14T11:59:47;12.02;;;6.87;;
71566;SDS011;59403;47.456;19.120;2023-05-14T12:02:21;11.85;;;7.97;;
71566;SDS011;59403;47.456;19.120;2023-05-14T12:04:48;10.10;;;7.37;;
71566;SDS011;59403;47.456;19.120;2023-05-14T12:07:16;10.35;;;7.90;;
71566;SDS011;59403;47.456;19.120;2023-05-14T12:09:45;10.13;;;7.20;;
71566;SDS011;59403;47.456;19.120;2023-05-14T12:12:14;11.07;;;7.40;;
71566;SDS011;59403;47.456;19.120;2023-05-14T12:14:43;10.63;;;7.65;;
71566;SDS011;59403;47.456;19.120;2023-05-14T12:17:11;10.80;;;7.65;;
71566;SDS011;59403;47.456;19.120;2023-05-14T12:19:39;11.35;;;8.48;;
71566;SDS011;59403;47.456;19.120;2023-05-14T12:22:07;11.47;;;8.17;;
71566;SDS011;59403;47.456;19.120;2023-05-14T12:24:34;10.65;;;8.23;;
71566;SDS011;59403;47.456;19.120;2023-05-14T12:27:03;10.85;;;8.18;;
71566;SDS011;59403;47.456;19.120;2023-05-14T12:29:33;10.65;;;8.43;;
71566;SDS011;59403;47.456;19.120;2023-05-14T12:32:01;10.65;;;8.82;;
71566;SDS011;59403;47.456;19.120;2023-05-14T12:34:32;11.67;;;8.60;;
71566;SDS011;59403;47.456;19.120;2023-05-14T12:36:59;13.20;;;8.90;;
71566;SDS011;59403;47.456;19.120;2023-05-14T12:39:26;11.63;;;8.90;;
71566;SDS011;59403;47.456;19.120;2023-05-14T12:41:53;12.90;;;9.20;;
71566;SDS011;59403;47.456;19.120;2023-05-14T12:44:21;12.80;;;9.60;;
71566;SDS011;59403;47.456;19.120;2023-05-14T12:46:48;11.40;;;8.53;;
71566;SDS011;59403;47.456;19.120;2023-05-14T12:49:15;13.68;;;9.52;;
71566;SDS011;59403;47.456;19.120;2023-05-14T12:51:42;14.27;;;9.70;;
71566;SDS011;59403;47.456;19.120;2023-05-14T12:54:10;12.00;;;8.88;;
71566;SDS011;59403;47.456;19.120;2023-05-14T12:56:39;14.23;;;9.77;;
71566;SDS011;59403;47.456;19.120;2023-05-14T12:59:06;14.70;;;10.10;;
71566;SDS011;59403;47.456;19.120;2023-05-14T13:01:35;12.32;;;9.57;;
71566;SDS011;59403;47.456;19.120;2023-05-14T13:04:02;11.50;;;9.30;;
71566;SDS011;59403;47.456;19.120;2023-05-14T13:06:29;13.45;;;10.40;;
71566;SDS011;59403;47.456;19.120;2023-05-14T13:08:56;15.95;;;10.27;;
71566;SDS011;59403;47.456;19.120;2023-05-14T13:11:25;13.53;;;10.00;;
71566;SDS011;59403;47.456;19.120;2023-05-14T13:13:54;13.60;;;9.88;;
71566;SDS011;59403;47.456;19.120;2023-05-14T13:16:21;13.35;;;10.00;;
71566;SDS011;59403;47.456;19.120;2023-05-14T13:18:50;12.37;;;8.82;;
71566;SDS011;59403;47.456;19.120;2023-05-14T13:21:16;12.40;;;8.98;;
71566;SDS011;59403;47.456;19.120;2023-05-14T13:23:44;13.43;;;9.70;;
71566;SDS011;59403;47.456;19.120;2023-05-14T13:26:11;16.02;;;9.93;;
71566;SDS011;59403;47.456;19.120;2023-05-14T13:28:38;13.20;;;9.93;;
71566;SDS011;59403;47.456;19.120;2023-05-14T13:31:05;12.98;;;9.68;;
71566;SDS011;59403;47.456;19.120;2023-05-14T13:33:34;13.48;;;9.68;;
71566;SDS011;59403;47.456;19.120;2023-05-14T13:36:02;15.33;;;10.00;;
71566;SDS011;59403;47.456;19.120;2023-05-14T13:38:30;12.55;;;9.20;;
71566;SDS011;59403;47.456;19.120;2023-05-14T13:40:57;14.05;;;9.85;;
71566;SDS011;59403;47.456;19.120;2023-05-14T13:43:26;12.45;;;9.75;;
71566;SDS011;59403;47.456;19.120;2023-05-14T13:45:54;12.93;;;9.27;;
71566;SDS011;59403;47.456;19.120;2023-05-14T13:48:21;14.10;;;9.60;;
71566;SDS011;59403;47.456;19.120;2023-05-14T13:50:48;11.55;;;9.32;;
71566;SDS011;59403;47.456;19.120;2023-05-14T13:53:17;13.55;;;9.73;;
71566;SDS011;59403;47.456;19.120;2023-05-14T13:55:44;13.85;;;10.77;;
71566;SDS011;59403;47.456;19.120;2023-05-14T13:58:11;13.38;;;10.38;;
71566;SDS011;59403;47.456;19.120;2023-05-14T14:00:38;13.43;;;9.57;;
71566;SDS011;59403;47.456;19.120;2023-05-14T14:03:05;13.32;;;9.52;;
71566;SDS011;59403;47.456;19.120;2023-05-14T14:05:33;13.80;;;10.13;;
71566;SDS011;59403;47.456;19.120;2023-05-14T14:08:00;15.23;;;10.77;;
71566;SDS011;59403;47.456;19.120;2023-05-14T14:10:29;12.50;;;10.10;;
71566;SDS011;59403;47.456;19.120;2023-05-14T14:12:56;12.63;;;9.93;;
71566;SDS011;59403;47.456;19.120;2023-05-14T14:15:23;14.98;;;10.43;;
71566;SDS011;59403;47.456;19.120;2023-05-14T14:17:49;15.52;;;10.60;;
71566;SDS011;59403;47.456;19.120;2023-05-14T14:20:16;14.23;;;10.55;;
71566;SDS011;59403;47.456;19.120;2023-05-14T14:22:43;14.32;;;11.18;;
71566;SDS011;59403;47.456;19.120;2023-05-14T14:25:10;14.60;;;10.77;;
71566;SDS011;59403;47.456;19.120;2023-05-14T14:27:39;13.23;;;9.73;;
71566;SDS011;59403;47.456;19.120;2023-05-14T14:30:06;13.32;;;10.30;;
71566;SDS011;59403;47.456;19.120;2023-05-14T14:32:39;14.02;;;9.75;;
71566;SDS011;59403;47.456;19.120;2023-05-14T14:35:07;13.70;;;10.27;;
71566;SDS011;59403;47.456;19.120;2023-05-14T14:37:39;11.43;;;8.10;;